sensor_id;sensor_type;location;lat;lon;timestamp;P1;durP1;ratioP1;P2;durP2;ratioP2
37527;SDS011;23372;52.050;4.810;2023-05-24T00:00:37;10.50;;;4.03;;
37527;SDS011;23372;52.050;4.810;2023-05-24T00:03:04;11.13;;;4.13;;
37527;SDS011;23372;52.050;4.810;2023-05-24T00:05:30;14.90;;;4.17;;
37527;SDS011;23372;52.050;4.810;2023-05-24T00:07:57;12.73;;;3.70;;
37527;SDS011;23372;52.050;4.810;2023-05-24T00:10:23;15.67;;;4.37;;
37527;SDS011;23372;52.050;4.810;2023-05-24T00:12:49;16.20;;;4.40;;
37527;SDS011;23372;52.050;4.810;2023-05-24T00:15:14;15.30;;;4.10;;
37527;SDS011;23372;52.050;4.810;2023-05-24T00:17:40;14.47;;;4.70;;
37527;SDS011;23372;52.050;4.810;2023-05-24T00:20:10;15.77;;;4.23;;
37527;SDS011;23372;52.050;4.810;2023-05-24T00:22:36;14.30;;;4.47;;
37527;SDS011;23372;52.050;4.810;2023-05-24T00:25:02;17.10;;;4.20;;
37527;SDS011;23372;52.050;4.810;2023-05-24T00:27:29;11.40;;;3.77;;
37527;SDS011;23372;52.050;4.810;2023-05-24T00:29:55;14.57;;;4.07;;
37527;SDS011;23372;52.050;4.810;2023-05-24T00:32:20;11.73;;;3.47;;
37527;SDS011;23372;52.050;4.810;2023-05-24T00:34:46;18.30;;;4.63;;
37527;SDS011;23372;52.050;4.810;2023-05-24T00:37:11;16.87;;;3.53;;
37527;SDS011;23372;52.050;4.810;2023-05-24T00:39:37;13.33;;;3.90;;
37527;SDS011;23372;52.050;4.810;2023-05-24T00:42:03;16.30;;;4.20;;
37527;SDS011;23372;52.050;4.810;2023-05-24T00:44:29;15.83;;;3.90;;
37527;SDS011;23372;52.050;4.810;2023-05-24T00:46:55;15.47;;;4.20;;
37527;SDS011;23372;52.050;4.810;2023-05-24T00:49:21;15.20;;;4.27;;
37527;SDS011;23372;52.050;4.810;2023-05-24T00:51:47;20.13;;;4.80;;
37527;SDS011;23372;52.050;4.810;2023-05-24T00:54:14;14.00;;;3.93;;
37527;SDS011;23372;52.050;4.810;2023-05-24T00:56:40;17.93;;;5.10;;
37527;SDS011;23372;52.050;4.810;2023-05-24T00:59:07;14.77;;;4.47;;
37527;SDS011;23372;52.050;4.810;2023-05-24T01:01:33;16.17;;;4.73;;
37527;SDS011;23372;52.050;4.810;2023-05-24T01:03:59;20.13;;;4.37;;
37527;SDS011;23372;52.050;4.810;2023-05-24T01:06:26;18.67;;;5.23;;
37527;SDS011;23372;52.050;4.810;2023-05-24T01:12:06;11.17;;;3.87;;
37527;SDS011;23372;52.050;4.810;2023-05-24T01:14:52;11.37;;;3.60;;
37527;SDS011;23372;52.050;4.810;2023-05-24T01:20:17;13.50;;;4.77;;
37527;SDS011;23372;52.050;4.810;2023-05-24T01:28:20;12.00;;;4.10;;
37527;SDS011;23372;52.050;4.810;2023-05-24T01:30:47;10.70;;;3.70;;
37527;SDS011;23372;52.050;4.810;2023-05-24T01:33:13;16.30;;;4.23;;
37527;SDS011;23372;52.050;4.810;2023-05-24T01:35:39;12.53;;;3.63;;
37527;SDS011;23372;52.050;4.810;2023-05-24T01:38:06;14.83;;;4.77;;
37527;SDS011;23372;52.050;4.810;2023-05-24T01:40:32;9.50;;;3.97;;
37527;SDS011;23372;52.050;4.810;2023-05-24T01:43:02;13.53;;;4.53;;
37527;SDS011;23372;52.050;4.810;2023-05-24T01:45:49;7.33;;;3.00;;
37527;SDS011;23372;52.050;4.810;2023-05-24T01:51:19;16.57;;;4.20;;
37527;SDS011;23372;52.050;4.810;2023-05-24T01:53:48;20.07;;;5.40;;
37527;SDS011;23372;52.050;4.810;2023-05-24T01:56:16;13.83;;;3.93;;
37527;SDS011;23372;52.050;4.810;2023-05-24T01:58:44;10.27;;;5.00;;
37527;SDS011;23372;52.050;4.810;2023-05-24T02:01:11;15.60;;;4.10;;
37527;SDS011;23372;52.050;4.810;2023-05-24T02:03:38;13.83;;;5.07;;
37527;SDS011;23372;52.050;4.810;2023-05-24T02:06:04;12.07;;;4.07;;
37527;SDS011;23372;52.050;4.810;2023-05-24T02:08:30;13.43;;;4.00;;
37527;SDS011;23372;52.050;4.810;2023-05-24T02:10:56;13.13;;;4.33;;
37527;SDS011;23372;52.050;4.810;2023-05-24T02:13:21;16.77;;;5.73;;
37527;SDS011;23372;52.050;4.810;2023-05-24T02:15:47;11.33;;;4.77;;
37527;SDS011;23372;52.050;4.810;2023-05-24T02:18:14;15.80;;;4.60;;
37527;SDS011;23372;52.050;4.810;2023-05-24T02:20:42;16.23;;;4.73;;
37527;SDS011;23372;52.050;4.810;2023-05-24T02:23:08;14.13;;;4.13;;
37527;SDS011;23372;52.050;4.810;2023-05-24T02:25:33;22.37;;;5.47;;
37527;SDS011;23372;52.050;4.810;2023-05-24T02:27:59;11.13;;;4.53;;
37527;SDS011;23372;52.050;4.810;2023-05-24T02:30:25;10.90;;;4.10;;
37527;SDS011;23372;52.050;4.810;2023-05-24T02:32:51;11.83;;;4.60;;
37527;SDS011;23372;52.050;4.810;2023-05-24T02:35:17;17.13;;;4.67;;
37527;SDS011;23372;52.050;4.810;2023-05-24T02:37:42;14.77;;;4.53;;
37527;SDS011;23372;52.050;4.810;2023-05-24T02:40:08;18.47;;;6.10;;
37527;SDS011;23372;52.050;4.810;2023-05-24T02:42:34;14.00;;;5.03;;
37527;SDS011;23372;52.050;4.810;2023-05-24T02:45:00;18.40;;;5.23;;
37527;SDS011;23372;52.050;4.810;2023-05-24T02:47:26;18.20;;;4.73;;
37527;SDS011;23372;52.050;4.810;2023-05-24T02:49:52;14.27;;;4.80;;
37527;SDS011;23372;52.050;4.810;2023-05-24T02:52:18;18.70;;;4.60;;
37527;SDS011;23372;52.050;4.810;2023-05-24T02:54:46;16.30;;;5.37;;
37527;SDS011;23372;52.050;4.810;2023-05-24T02:57:12;13.03;;;4.70;;
37527;SDS011;23372;52.050;4.810;2023-05-24T02:59:38;20.70;;;5.03;;
37527;SDS011;23372;52.050;4.810;2023-05-24T03:02:04;13.13;;;4.70;;
37527;SDS011;23372;52.050;4.810;2023-05-24T03:04:29;18.53;;;5.13;;
37527;SDS011;23372;52.050;4.810;2023-05-24T03:06:55;12.87;;;4.37;;
37527;SDS011;23372;52.050;4.810;2023-05-24T03:09:20;18.37;;;6.17;;
37527;SDS011;23372;52.050;4.810;2023-05-24T03:11:46;17.60;;;4.67;;
37527;SDS011;23372;52.050;4.810;2023-05-24T03:14:12;11.30;;;4.47;;
37527;SDS011;23372;52.050;4.810;2023-05-24T03:16:37;26.40;;;5.43;;
37527;SDS011;23372;52.050;4.810;2023-05-24T03:19:03;13.67;;;4.30;;
37527;SDS011;23372;52.050;4.810;2023-05-24T03:21:29;18.13;;;5.00;;
37527;SDS011;23372;52.050;4.810;2023-05-24T03:23:56;15.53;;;5.63;;
37527;SDS011;23372;52.050;4.810;2023-05-24T03:26:21;18.37;;;4.67;;
37527;SDS011;23372;52.050;4.810;2023-05-24T03:28:47;13.23;;;4.70;;
37527;SDS011;23372;52.050;4.810;2023-05-24T03:31:15;20.17;;;5.23;;
37527;SDS011;23372;52.050;4.810;2023-05-24T03:33:40;18.60;;;4.80;;
37527;SDS011;23372;52.050;4.810;2023-05-24T03:36:06;18.83;;;5.20;;
37527;SDS011;23372;52.050;4.810;2023-05-24T03:38:32;11.93;;;4.17;;
37527;SDS011;23372;52.050;4.810;2023-05-24T03:40:58;19.60;;;4.97;;
37527;SDS011;23372;52.050;4.810;2023-05-24T03:43:23;13.83;;;5.43;;
37527;SDS011;23372;52.050;4.810;2023-05-24T03:45:49;21.07;;;5.20;;
37527;SDS011;23372;52.050;4.810;2023-05-24T03:48:15;22.33;;;6.13;;
37527;SDS011;23372;52.050;4.810;2023-05-24T03:50:41;13.97;;;5.47;;
37527;SDS011;23372;52.050;4.810;2023-05-24T03:53:07;16.03;;;4.50;;
37527;SDS011;23372;52.050;4.810;2023-05-24T03:55:32;19.10;;;4.70;;
37527;SDS011;23372;52.050;4.810;2023-05-24T03:57:58;12.93;;;4.40;;
37527;SDS011;23372;52.050;4.810;2023-05-24T04:00:23;14.43;;;4.27;;
37527;SDS011;23372;52.050;4.810;2023-05-24T04:02:49;11.67;;;4.43;;
37527;SDS011;23372;52.050;4.810;2023-05-24T04:05:15;14.93;;;5.23;;
37527;SDS011;23372;52.050;4.810;2023-05-24T04:07:40;24.47;;;5.40;;
37527;SDS011;23372;52.050;4.810;2023-05-24T04:10:07;19.70;;;5.87;;
37527;SDS011;23372;52.050;4.810;2023-05-24T04:12:33;16.13;;;4.90;;
37527;SDS011;23372;52.050;4.810;2023-05-24T04:14:59;15.13;;;4.70;;
37527;SDS011;23372;52.050;4.810;2023-05-24T04:17:26;12.17;;;4.67;;
37527;SDS011;23372;52.050;4.810;2023-05-24T04:19:53;19.07;;;4.63;;
37527;SDS011;23372;52.050;4.810;2023-05-24T04:22:19;16.70;;;5.33;;
37527;SDS011;23372;52.050;4.810;2023-05-24T04:24:44;17.70;;;5.30;;
37527;SDS011;23372;52.050;4.810;2023-05-24T04:27:10;17.73;;;4.60;;
37527;SDS011;23372;52.050;4.810;2023-05-24T04:29:37;12.90;;;4.03;;
37527;SDS011;23372;52.050;4.810;2023-05-24T04:32:04;16.57;;;5.43;;
37527;SDS011;23372;52.050;4.810;2023-05-24T04:34:30;14.47;;;4.13;;
37527;SDS011;23372;52.050;4.810;2023-05-24T04:36:58;22.50;;;4.87;;
37527;SDS011;23372;52.050;4.810;2023-05-24T04:39:24;14.40;;;5.07;;
37527;SDS011;23372;52.050;4.810;2023-05-24T04:41:50;17.97;;;5.20;;
37527;SDS011;23372;52.050;4.810;2023-05-24T04:44:17;17.20;;;4.90;;
37527;SDS011;23372;52.050;4.810;2023-05-24T04:46:43;16.57;;;5.23;;
37527;SDS011;23372;52.050;4.810;2023-05-24T04:49:08;23.73;;;6.13;;
37527;SDS011;23372;52.050;4.810;2023-05-24T04:51:34;15.13;;;4.70;;
37527;SDS011;23372;52.050;4.810;2023-05-24T04:54:02;15.40;;;5.03;;
37527;SDS011;23372;52.050;4.810;2023-05-24T04:56:32;15.33;;;5.17;;
37527;SDS011;23372;52.050;4.810;2023-05-24T04:59:02;21.87;;;6.23;;
37527;SDS011;23372;52.050;4.810;2023-05-24T05:01:31;19.23;;;5.57;;
37527;SDS011;23372;52.050;4.810;2023-05-24T05:03:58;19.47;;;5.63;;
37527;SDS011;23372;52.050;4.810;2023-05-24T05:06:23;18.10;;;5.37;;
37527;SDS011;23372;52.050;4.810;2023-05-24T05:08:49;17.33;;;6.20;;
37527;SDS011;23372;52.050;4.810;2023-05-24T05:11:16;14.83;;;5.30;;
37527;SDS011;23372;52.050;4.810;2023-05-24T05:13:42;15.70;;;5.80;;
37527;SDS011;23372;52.050;4.810;2023-05-24T05:16:08;16.03;;;7.03;;
37527;SDS011;23372;52.050;4.810;2023-05-24T05:18:34;18.37;;;5.67;;
37527;SDS011;23372;52.050;4.810;2023-05-24T05:20:59;21.93;;;7.90;;
37527;SDS011;23372;52.050;4.810;2023-05-24T05:23:25;18.17;;;6.33;;
37527;SDS011;23372;52.050;4.810;2023-05-24T05:25:50;20.40;;;5.77;;
37527;SDS011;23372;52.050;4.810;2023-05-24T05:28:16;18.80;;;5.80;;
37527;SDS011;23372;52.050;4.810;2023-05-24T05:30:41;20.07;;;6.93;;
37527;SDS011;23372;52.050;4.810;2023-05-24T05:33:07;18.37;;;6.73;;
37527;SDS011;23372;52.050;4.810;2023-05-24T05:35:32;20.80;;;6.00;;
37527;SDS011;23372;52.050;4.810;2023-05-24T05:37:58;16.43;;;5.97;;
37527;SDS011;23372;52.050;4.810;2023-05-24T05:40:24;20.13;;;6.43;;
37527;SDS011;23372;52.050;4.810;2023-05-24T05:42:49;16.63;;;6.23;;
37527;SDS011;23372;52.050;4.810;2023-05-24T05:45:15;25.93;;;6.00;;
37527;SDS011;23372;52.050;4.810;2023-05-24T05:47:41;20.47;;;6.57;;
37527;SDS011;23372;52.050;4.810;2023-05-24T05:50:07;19.77;;;5.43;;
37527;SDS011;23372;52.050;4.810;2023-05-24T05:52:33;20.93;;;6.20;;
37527;SDS011;23372;52.050;4.810;2023-05-24T05:54:59;22.60;;;5.60;;
37527;SDS011;23372;52.050;4.810;2023-05-24T05:57:25;23.07;;;6.50;;
37527;SDS011;23372;52.050;4.810;2023-05-24T05:59:51;23.43;;;6.63;;
37527;SDS011;23372;52.050;4.810;2023-05-24T06:02:16;27.67;;;8.13;;
37527;SDS011;23372;52.050;4.810;2023-05-24T06:04:48;21.63;;;6.90;;
37527;SDS011;23372;52.050;4.810;2023-05-24T06:07:14;25.27;;;6.30;;
37527;SDS011;23372;52.050;4.810;2023-05-24T06:09:40;15.80;;;6.27;;
37527;SDS011;23372;52.050;4.810;2023-05-24T06:12:06;20.90;;;6.80;;
37527;SDS011;23372;52.050;4.810;2023-05-24T06:14:31;20.33;;;7.13;;
37527;SDS011;23372;52.050;4.810;2023-05-24T06:16:58;20.05;;;7.22;;
37527;SDS011;23372;52.050;4.810;2023-05-24T06:19:24;24.17;;;7.28;;
37527;SDS011;23372;52.050;4.810;2023-05-24T06:21:51;19.42;;;7.20;;
37527;SDS011;23372;52.050;4.810;2023-05-24T06:24:17;20.92;;;7.00;;
37527;SDS011;23372;52.050;4.810;2023-05-24T06:26:45;19.55;;;7.50;;
37527;SDS011;23372;52.050;4.810;2023-05-24T06:29:12;25.58;;;6.97;;
37527;SDS011;23372;52.050;4.810;2023-05-24T06:31:38;20.90;;;6.20;;
37527;SDS011;23372;52.050;4.810;2023-05-24T06:34:03;25.52;;;8.15;;
37527;SDS011;23372;52.050;4.810;2023-05-24T06:36:29;21.40;;;7.28;;
37527;SDS011;23372;52.050;4.810;2023-05-24T06:38:58;19.98;;;4.97;;
37527;SDS011;23372;52.050;4.810;2023-05-24T06:41:23;20.13;;;5.25;;
37527;SDS011;23372;52.050;4.810;2023-05-24T06:43:50;16.17;;;5.70;;
37527;SDS011;23372;52.050;4.810;2023-05-24T06:46:16;18.00;;;5.00;;
37527;SDS011;23372;52.050;4.810;2023-05-24T06:48:42;17.42;;;5.38;;
37527;SDS011;23372;52.050;4.810;2023-05-24T06:51:07;18.00;;;4.45;;
37527;SDS011;23372;52.050;4.810;2023-05-24T06:53:33;11.95;;;3.20;;
37527;SDS011;23372;52.050;4.810;2023-05-24T06:55:58;16.00;;;3.75;;
37527;SDS011;23372;52.050;4.810;2023-05-24T06:58:24;14.25;;;3.97;;
37527;SDS011;23372;52.050;4.810;2023-05-24T07:00:50;20.38;;;4.45;;
37527;SDS011;23372;52.050;4.810;2023-05-24T07:03:16;18.98;;;4.22;;
37527;SDS011;23372;52.050;4.810;2023-05-24T07:05:41;16.63;;;4.32;;
37527;SDS011;23372;52.050;4.810;2023-05-24T07:08:07;19.73;;;5.10;;
37527;SDS011;23372;52.050;4.810;2023-05-24T07:10:33;19.55;;;4.10;;
37527;SDS011;23372;52.050;4.810;2023-05-24T07:12:58;13.32;;;3.55;;
37527;SDS011;23372;52.050;4.810;2023-05-24T07:15:25;15.02;;;3.88;;
37527;SDS011;23372;52.050;4.810;2023-05-24T07:17:51;17.33;;;4.60;;
37527;SDS011;23372;52.050;4.810;2023-05-24T07:20:17;20.85;;;3.83;;
37527;SDS011;23372;52.050;4.810;2023-05-24T07:22:42;11.68;;;3.60;;
37527;SDS011;23372;52.050;4.810;2023-05-24T07:25:08;18.58;;;4.28;;
37527;SDS011;23372;52.050;4.810;2023-05-24T07:27:34;20.17;;;4.35;;
37527;SDS011;23372;52.050;4.810;2023-05-24T07:30:00;15.70;;;3.17;;
37527;SDS011;23372;52.050;4.810;2023-05-24T07:32:26;12.77;;;3.92;;
37527;SDS011;23372;52.050;4.810;2023-05-24T07:34:52;15.40;;;3.17;;
37527;SDS011;23372;52.050;4.810;2023-05-24T07:37:19;14.00;;;3.47;;
37527;SDS011;23372;52.050;4.810;2023-05-24T07:39:47;14.15;;;3.55;;
37527;SDS011;23372;52.050;4.810;2023-05-24T07:42:13;16.00;;;3.80;;
37527;SDS011;23372;52.050;4.810;2023-05-24T07:44:39;10.50;;;3.17;;
37527;SDS011;23372;52.050;4.810;2023-05-24T07:47:05;12.85;;;3.55;;
37527;SDS011;23372;52.050;4.810;2023-05-24T07:49:30;10.23;;;3.00;;
37527;SDS011;23372;52.050;4.810;2023-05-24T07:51:56;14.55;;;4.00;;
37527;SDS011;23372;52.050;4.810;2023-05-24T07:54:23;16.80;;;3.35;;
37527;SDS011;23372;52.050;4.810;2023-05-24T07:56:49;15.18;;;4.18;;
37527;SDS011;23372;52.050;4.810;2023-05-24T07:59:15;13.68;;;3.78;;
37527;SDS011;23372;52.050;4.810;2023-05-24T08:01:41;12.40;;;3.47;;
37527;SDS011;23372;52.050;4.810;2023-05-24T08:04:07;15.32;;;4.00;;
37527;SDS011;23372;52.050;4.810;2023-05-24T08:06:34;13.35;;;3.28;;
37527;SDS011;23372;52.050;4.810;2023-05-24T08:09:02;15.75;;;4.03;;
37527;SDS011;23372;52.050;4.810;2023-05-24T08:11:29;15.75;;;4.03;;
37527;SDS011;23372;52.050;4.810;2023-05-24T08:13:55;12.30;;;3.22;;
37527;SDS011;23372;52.050;4.810;2023-05-24T08:16:20;13.32;;;3.53;;
37527;SDS011;23372;52.050;4.810;2023-05-24T08:18:46;13.48;;;3.70;;
37527;SDS011;23372;52.050;4.810;2023-05-24T08:21:12;12.52;;;3.53;;
37527;SDS011;23372;52.050;4.810;2023-05-24T08:23:37;12.00;;;3.60;;
37527;SDS011;23372;52.050;4.810;2023-05-24T08:26:03;12.43;;;4.07;;
37527;SDS011;23372;52.050;4.810;2023-05-24T08:28:28;11.75;;;3.80;;
37527;SDS011;23372;52.050;4.810;2023-05-24T08:30:54;11.23;;;3.80;;
37527;SDS011;23372;52.050;4.810;2023-05-24T08:33:20;16.50;;;4.07;;
37527;SDS011;23372;52.050;4.810;2023-05-24T08:35:47;12.52;;;4.25;;
37527;SDS011;23372;52.050;4.810;2023-05-24T08:38:16;12.07;;;3.33;;
37527;SDS011;23372;52.050;4.810;2023-05-24T08:40:42;11.38;;;3.42;;
37527;SDS011;23372;52.050;4.810;2023-05-24T08:43:08;9.95;;;3.58;;
37527;SDS011;23372;52.050;4.810;2023-05-24T08:45:36;10.40;;;3.97;;
37527;SDS011;23372;52.050;4.810;2023-05-24T08:48:06;15.23;;;3.97;;
37527;SDS011;23372;52.050;4.810;2023-05-24T08:50:33;15.45;;;4.18;;
37527;SDS011;23372;52.050;4.810;2023-05-24T08:52:59;12.35;;;3.33;;
37527;SDS011;23372;52.050;4.810;2023-05-24T08:55:28;17.85;;;4.13;;
37527;SDS011;23372;52.050;4.810;2023-05-24T08:57:55;14.43;;;3.38;;
37527;SDS011;23372;52.050;4.810;2023-05-24T09:00:21;14.52;;;3.75;;
37527;SDS011;23372;52.050;4.810;2023-05-24T09:02:47;14.75;;;3.38;;
37527;SDS011;23372;52.050;4.810;2023-05-24T09:05:14;20.80;;;4.32;;
37527;SDS011;23372;52.050;4.810;2023-05-24T09:07:45;17.55;;;3.75;;
37527;SDS011;23372;52.050;4.810;2023-05-24T09:10:13;13.27;;;3.33;;
37527;SDS011;23372;52.050;4.810;2023-05-24T09:12:39;13.48;;;4.03;;
37527;SDS011;23372;52.050;4.810;2023-05-24T09:15:09;15.90;;;3.70;;
37527;SDS011;23372;52.050;4.810;2023-05-24T09:17:36;13.88;;;4.00;;
37527;SDS011;23372;52.050;4.810;2023-05-24T09:20:03;12.48;;;3.97;;
37527;SDS011;23372;52.050;4.810;2023-05-24T09:22:33;11.60;;;3.55;;
37527;SDS011;23372;52.050;4.810;2023-05-24T09:25:01;15.35;;;3.38;;
37527;SDS011;23372;52.050;4.810;2023-05-24T09:27:30;10.57;;;3.42;;
37527;SDS011;23372;52.050;4.810;2023-05-24T09:29:58;12.50;;;4.00;;
37527;SDS011;23372;52.050;4.810;2023-05-24T09:32:25;10.63;;;3.42;;
37527;SDS011;23372;52.050;4.810;2023-05-24T09:34:52;11.43;;;3.80;;
37527;SDS011;23372;52.050;4.810;2023-05-24T09:37:22;11.45;;;3.65;;
37527;SDS011;23372;52.050;4.810;2023-05-24T09:39:51;13.48;;;3.42;;
37527;SDS011;23372;52.050;4.810;2023-05-24T09:42:17;18.02;;;3.70;;
37527;SDS011;23372;52.050;4.810;2023-05-24T09:44:47;15.05;;;4.18;;
37527;SDS011;23372;52.050;4.810;2023-05-24T09:47:14;11.32;;;3.08;;
37527;SDS011;23372;52.050;4.810;2023-05-24T09:49:39;14.70;;;3.75;;
37527;SDS011;23372;52.050;4.810;2023-05-24T09:52:06;11.68;;;3.28;;
37527;SDS011;23372;52.050;4.810;2023-05-24T09:54:31;11.00;;;3.03;;
37527;SDS011;23372;52.050;4.810;2023-05-24T09:57:01;12.35;;;3.35;;
37527;SDS011;23372;52.050;4.810;2023-05-24T09:59:30;14.48;;;3.35;;
37527;SDS011;23372;52.050;4.810;2023-05-24T10:02:07;14.38;;;3.67;;
37527;SDS011;23372;52.050;4.810;2023-05-24T10:04:39;10.90;;;2.95;;
37527;SDS011;23372;52.050;4.810;2023-05-24T10:07:05;12.07;;;3.05;;
37527;SDS011;23372;52.050;4.810;2023-05-24T10:09:32;13.13;;;3.30;;
37527;SDS011;23372;52.050;4.810;2023-05-24T10:12:00;12.75;;;3.20;;
37527;SDS011;23372;52.050;4.810;2023-05-24T10:14:29;12.70;;;3.47;;
37527;SDS011;23372;52.050;4.810;2023-05-24T10:16:57;13.23;;;3.97;;
37527;SDS011;23372;52.050;4.810;2023-05-24T10:19:23;10.52;;;2.65;;
37527;SDS011;23372;52.050;4.810;2023-05-24T10:21:49;9.93;;;3.58;;
37527;SDS011;23372;52.050;4.810;2023-05-24T10:24:17;10.07;;;3.33;;
37527;SDS011;23372;52.050;4.810;2023-05-24T10:26:48;9.68;;;3.60;;
37527;SDS011;23372;52.050;4.810;2023-05-24T10:30:03;10.77;;;3.17;;
37527;SDS011;23372;52.050;4.810;2023-05-24T10:32:09;9.15;;;2.80;;
37527;SDS011;23372;52.050;4.810;2023-05-24T10:34:35;10.35;;;3.45;;
37527;SDS011;23372;52.050;4.810;2023-05-24T10:37:02;15.13;;;3.83;;
37527;SDS011;23372;52.050;4.810;2023-05-24T10:39:28;12.45;;;3.50;;
37527;SDS011;23372;52.050;4.810;2023-05-24T10:41:56;12.13;;;3.92;;
37527;SDS011;23372;52.050;4.810;2023-05-24T10:44:27;9.45;;;3.25;;
37527;SDS011;23372;52.050;4.810;2023-05-24T10:47:00;11.55;;;3.35;;
37527;SDS011;23372;52.050;4.810;2023-05-24T10:49:26;11.75;;;3.75;;
37527;SDS011;23372;52.050;4.810;2023-05-24T10:51:53;12.55;;;3.55;;
37527;SDS011;23372;52.050;4.810;2023-05-24T10:54:25;12.73;;;3.45;;
37527;SDS011;23372;52.050;4.810;2023-05-24T10:56:51;14.25;;;3.80;;
37527;SDS011;23372;52.050;4.810;2023-05-24T10:59:21;9.02;;;3.08;;
37527;SDS011;23372;52.050;4.810;2023-05-24T11:01:55;12.23;;;4.10;;
37527;SDS011;23372;52.050;4.810;2023-05-24T11:04:21;13.60;;;4.65;;
37527;SDS011;23372;52.050;4.810;2023-05-24T11:09:15;9.50;;;3.67;;
37527;SDS011;23372;52.050;4.810;2023-05-24T11:11:45;15.82;;;4.05;;
37527;SDS011;23372;52.050;4.810;2023-05-24T11:14:12;13.55;;;3.72;;
37527;SDS011;23372;52.050;4.810;2023-05-24T11:16:38;10.18;;;3.75;;
37527;SDS011;23372;52.050;4.810;2023-05-24T11:19:11;12.55;;;3.58;;
37527;SDS011;23372;52.050;4.810;2023-05-24T11:21:39;11.05;;;3.35;;
37527;SDS011;23372;52.050;4.810;2023-05-24T11:24:07;16.08;;;4.28;;
37527;SDS011;23372;52.050;4.810;2023-05-24T11:26:33;10.38;;;3.80;;
37527;SDS011;23372;52.050;4.810;2023-05-24T11:29:00;12.68;;;3.92;;
37527;SDS011;23372;52.050;4.810;2023-05-24T11:31:28;14.57;;;4.10;;
37527;SDS011;23372;52.050;4.810;2023-05-24T11:33:55;11.82;;;3.50;;
37527;SDS011;23372;52.050;4.810;2023-05-24T11:36:20;16.45;;;4.47;;
37527;SDS011;23372;52.050;4.810;2023-05-24T11:38:46;16.42;;;4.50;;
37527;SDS011;23372;52.050;4.810;2023-05-24T11:41:13;13.68;;;4.30;;
37527;SDS011;23372;52.050;4.810;2023-05-24T11:43:38;16.55;;;4.20;;
37527;SDS011;23372;52.050;4.810;2023-05-24T11:46:05;13.93;;;4.43;;
37527;SDS011;23372;52.050;4.810;2023-05-24T11:48:31;16.15;;;3.67;;
37527;SDS011;23372;52.050;4.810;2023-05-24T11:50:57;13.05;;;4.20;;
37527;SDS011;23372;52.050;4.810;2023-05-24T11:53:24;12.95;;;4.35;;
37527;SDS011;23372;52.050;4.810;2023-05-24T11:55:50;12.80;;;3.90;;
37527;SDS011;23372;52.050;4.810;2023-05-24T11:58:21;12.55;;;4.22;;
37527;SDS011;23372;52.050;4.810;2023-05-24T12:00:49;11.40;;;3.75;;
37527;SDS011;23372;52.050;4.810;2023-05-24T12:03:15;13.35;;;4.30;;
37527;SDS011;23372;52.050;4.810;2023-05-24T12:05:41;14.10;;;3.63;;
37527;SDS011;23372;52.050;4.810;2023-05-24T12:08:08;16.98;;;5.13;;
37527;SDS011;23372;52.050;4.810;2023-05-24T12:10:36;17.50;;;3.90;;
37527;SDS011;23372;52.050;4.810;2023-05-24T12:13:03;11.30;;;3.50;;
37527;SDS011;23372;52.050;4.810;2023-05-24T12:15:29;11.27;;;4.00;;
37527;SDS011;23372;52.050;4.810;2023-05-24T12:17:55;11.70;;;4.10;;
37527;SDS011;23372;52.050;4.810;2023-05-24T12:20:22;10.60;;;3.88;;
37527;SDS011;23372;52.050;4.810;2023-05-24T12:22:51;14.13;;;4.30;;
37527;SDS011;23372;52.050;4.810;2023-05-24T12:25:18;12.18;;;4.53;;
37527;SDS011;23372;52.050;4.810;2023-05-24T12:27:45;25.92;;;5.82;;
37527;SDS011;23372;52.050;4.810;2023-05-24T12:30:20;13.60;;;4.20;;
37527;SDS011;23372;52.050;4.810;2023-05-24T12:32:50;14.27;;;4.20;;
37527;SDS011;23372;52.050;4.810;2023-05-24T12:35:20;14.80;;;4.88;;
37527;SDS011;23372;52.050;4.810;2023-05-24T12:37:46;16.65;;;4.72;;
37527;SDS011;23372;52.050;4.810;2023-05-24T12:40:19;12.02;;;4.05;;
37527;SDS011;23372;52.050;4.810;2023-05-24T12:42:49;13.40;;;4.38;;
37527;SDS011;23372;52.050;4.810;2023-05-24T12:45:17;14.30;;;4.22;;
37527;SDS011;23372;52.050;4.810;2023-05-24T12:47:50;10.05;;;4.65;;
37527;SDS011;23372;52.050;4.810;2023-05-24T12:50:20;13.20;;;3.95;;
37527;SDS011;23372;52.050;4.810;2023-05-24T12:52:46;23.20;;;4.65;;
37527;SDS011;23372;52.050;4.810;2023-05-24T12:55:17;17.88;;;4.40;;
37527;SDS011;23372;52.050;4.810;2023-05-24T12:57:43;13.38;;;3.97;;
37527;SDS011;23372;52.050;4.810;2023-05-24T13:00:16;15.32;;;4.35;;
37527;SDS011;23372;52.050;4.810;2023-05-24T13:02:43;15.77;;;4.63;;
37527;SDS011;23372;52.050;4.810;2023-05-24T13:05:09;17.35;;;4.32;;
37527;SDS011;23372;52.050;4.810;2023-05-24T13:07:34;11.35;;;5.20;;
37527;SDS011;23372;52.050;4.810;2023-05-24T13:10:00;11.20;;;3.53;;
37527;SDS011;23372;52.050;4.810;2023-05-24T13:12:26;13.73;;;3.97;;
37527;SDS011;23372;52.050;4.810;2023-05-24T13:14:52;12.80;;;4.13;;
37527;SDS011;23372;52.050;4.810;2023-05-24T13:17:17;12.32;;;4.40;;
37527;SDS011;23372;52.050;4.810;2023-05-24T13:19:44;16.17;;;4.43;;
37527;SDS011;23372;52.050;4.810;2023-05-24T13:22:11;15.45;;;4.00;;
37527;SDS011;23372;52.050;4.810;2023-05-24T13:24:36;19.38;;;3.92;;
37527;SDS011;23372;52.050;4.810;2023-05-24T13:27:02;11.48;;;3.80;;
37527;SDS011;23372;52.050;4.810;2023-05-24T13:29:28;11.27;;;3.70;;
37527;SDS011;23372;52.050;4.810;2023-05-24T13:31:54;16.60;;;4.05;;
37527;SDS011;23372;52.050;4.810;2023-05-24T13:34:20;9.82;;;3.20;;
37527;SDS011;23372;52.050;4.810;2023-05-24T13:36:48;13.43;;;3.67;;
37527;SDS011;23372;52.050;4.810;2023-05-24T13:39:14;9.52;;;3.47;;
37527;SDS011;23372;52.050;4.810;2023-05-24T13:41:40;18.38;;;4.72;;
37527;SDS011;23372;52.050;4.810;2023-05-24T13:44:06;14.75;;;4.10;;
37527;SDS011;23372;52.050;4.810;2023-05-24T13:46:32;15.50;;;3.28;;
37527;SDS011;23372;52.050;4.810;2023-05-24T13:48:58;11.57;;;3.85;;
37527;SDS011;23372;52.050;4.810;2023-05-24T13:51:23;11.93;;;3.97;;
37527;SDS011;23372;52.050;4.810;2023-05-24T13:53:51;16.45;;;3.22;;
37527;SDS011;23372;52.050;4.810;2023-05-24T13:56:16;19.13;;;4.50;;
37527;SDS011;23372;52.050;4.810;2023-05-24T13:58:42;12.48;;;3.50;;
37527;SDS011;23372;52.050;4.810;2023-05-24T14:01:08;12.95;;;2.97;;
37527;SDS011;23372;52.050;4.810;2023-05-24T14:03:34;14.98;;;3.35;;
37527;SDS011;23372;52.050;4.810;2023-05-24T14:06:00;14.32;;;3.83;;
37527;SDS011;23372;52.050;4.810;2023-05-24T14:08:26;12.82;;;3.80;;
37527;SDS011;23372;52.050;4.810;2023-05-24T14:10:51;12.52;;;3.60;;
37527;SDS011;23372;52.050;4.810;2023-05-24T14:13:17;11.98;;;3.38;;
37527;SDS011;23372;52.050;4.810;2023-05-24T14:15:43;14.80;;;3.80;;
37527;SDS011;23372;52.050;4.810;2023-05-24T14:18:10;14.18;;;3.60;;
37527;SDS011;23372;52.050;4.810;2023-05-24T14:20:36;18.10;;;3.85;;
37527;SDS011;23372;52.050;4.810;2023-05-24T14:23:03;17.75;;;3.80;;
37527;SDS011;23372;52.050;4.810;2023-05-24T14:25:30;10.18;;;3.58;;
37527;SDS011;23372;52.050;4.810;2023-05-24T14:27:57;10.60;;;3.72;;
37527;SDS011;23372;52.050;4.810;2023-05-24T14:30:22;14.57;;;3.55;;
37527;SDS011;23372;52.050;4.810;2023-05-24T14:32:48;16.63;;;3.67;;
37527;SDS011;23372;52.050;4.810;2023-05-24T14:35:14;17.10;;;3.88;;
37527;SDS011;23372;52.050;4.810;2023-05-24T14:37:39;8.55;;;3.00;;
37527;SDS011;23372;52.050;4.810;2023-05-24T14:40:05;15.13;;;4.18;;
37527;SDS011;23372;52.050;4.810;2023-05-24T14:42:31;12.00;;;3.67;;
37527;SDS011;23372;52.050;4.810;2023-05-24T14:44:57;12.55;;;3.33;;
37527;SDS011;23372;52.050;4.810;2023-05-24T14:47:22;12.43;;;3.72;;
37527;SDS011;23372;52.050;4.810;2023-05-24T14:49:48;12.95;;;4.07;;